Linda — OJML — position and weather

sailwx.info

Track history (hours):
 
Tides and Currents Weather Stations Pressure Air Temp Water Temp Dewpoint Dewpoint Depression Visibility Wind Speed Wind Dir Waves Ship Positions

Linda

Last reported at 2016-Aug-27 23:33 UTC. Time now 2016-Aug-28 00:27 UTC.
Position N 57°13' E 008°16'.

Length 141 m; draft 7.7 m.

Type: Ship (hazmat cat A). MMSI: 230984000.

Date/timePositionNaut miles runAvg speedWind from/ knotsBaromVisibWave heightAir tempDewpointWater temp
2016-Aug-27 23:33N 57°13' E 008°16'2913.8
2016-Aug-27 21:27N 57°26' E 009°04'1213.6
2016-Aug-27 20:34N 57°32' E 009°25'1313.3
2016-Aug-27 19:33N 57°37' E 009°47'1412.9
2016-Aug-27 18:27N 57°42' E 010°12'1213.2
2016-Aug-27 17:33N 57°46' E 010°33'1111.1
2016-Aug-27 16:33N 57°44' E 010°53'1413.7
2016-Aug-27 15:33N 57°35' E 011°12'1413.8
2016-Aug-27 14:33N 57°24' E 011°28'1413.7
2016-Aug-27 13:33N 57°11' E 011°37'1313.2
2016-Aug-27 12:33N 56°59' E 011°46'1313.2
2016-Aug-27 11:33N 56°46' E 011°54'1313.4
2016-Aug-27 10:33N 56°34' E 012°02'2814.0
2016-Aug-27 08:33N 56°10' E 012°29'1313.0
2016-Aug-27 07:33N 55°59' E 012°42'1313.1
2016-Aug-27 06:33N 55°46' E 012°42'19 9.6
2016-Aug-27 04:34N 55°27' E 012°42'10 9.8
2016-Aug-27 03:33N 55°17' E 012°46'1211.7
2016-Aug-27 02:34N 55°16' E 013°06'1211.9
2016-Aug-27 01:34N 55°15' E 013°27'1212.4
2016-Aug-27 00:34N 55°15' E 013°49'1211.9
2016-Aug-26 23:34N 55°14' E 014°10'1211.5
2016-Aug-26 22:34N 55°21' E 014°26'1312.5
2016-Aug-26 21:34N 55°29' E 014°42'1212.2
2016-Aug-26 20:33N 55°36' E 015°01'1212.3
2016-Aug-26 19:34N 55°41' E 015°20'1313.4
2016-Aug-26 18:33N 55°48' E 015°40'235 6.2
2016-Aug-25 04:33N 58°02' E 021°34'1514.9
2016-Aug-25 03:33N 58°16' E 021°27'4915.0
2016-Aug-25 00:19N 59°04' E 021°34'1114.9
2016-Aug-24 23:34N 59°12' E 021°50'1615.2
2016-Aug-24 22:32N 59°22' E 022°14'1414.8
2016-Aug-24 21:33N 59°30' E 022°37'1515.0
2016-Aug-24 20:33N 59°35' E 023°05'1514.9
2016-Aug-24 19:33N 59°40' E 023°33'1514.9
2016-Aug-24 18:33N 59°45' E 024°01'65 1.7
2016-Aug-23 03:33N 59°59' E 026°07'1917.1
2016-Aug-23 02:26N 60°01' E 026°45'4515.7
2016-Aug-22 23:32N 60°08' E 028°15'1616.4
2016-Aug-22 22:34N 60°03' E 028°46'1717.3
2016-Aug-22 21:33N 60°02' E 029°21'1111.4
2016-Aug-22 20:34N 59°59' E 029°43'0 0.0
2016-Aug-22 04:32N 59°59' E 029°43'1212.2
2016-Aug-22 03:33N 60°02' E 029°19'1514.7
2016-Aug-22 02:33N 60°02' E 028°50'1414.0
2016-Aug-22 01:33N 60°05' E 028°22'1313.5
2016-Aug-22 00:33N 60°10' E 027°57'1312.7
2016-Aug-21 23:33N 60°07' E 027°32'1414.1
2016-Aug-21 22:34N 59°59' E 027°08'1414.5
2016-Aug-21 21:34N 59°60' E 026°39'1915.5
2016-Aug-21 20:19N 59°54' E 026°03'1215.7
2016-Aug-21 19:33N 59°51' E 025°39'2016.5
2016-Aug-21 18:20N 59°47' E 025°00'1316.7
2016-Aug-21 17:32N 59°43' E 024°35'1816.7
2016-Aug-21 16:27N 59°39' E 023°60'1617.3
2016-Aug-21 15:33N 59°34' E 023°31'2017.6
2016-Aug-21 14:25N 59°27' E 022°54'320 6.4
2016-Aug-19 12:32N 55°44' E 015°45'1514.9
2016-Aug-19 11:33N 55°36' E 015°23'1515.0
2016-Aug-19 10:33N 55°29' E 014°60'1514.6
2016-Aug-19 09:33N 55°22' E 014°38'1514.6
2016-Aug-19 08:34N 55°10' E 014°21'1414.4
2016-Aug-19 07:33N 55°00' E 014°04'1514.8
2016-Aug-19 06:33N 54°55' E 013°40'3215.8
2016-Aug-19 04:33N 54°43' E 012°48'1715.7
2016-Aug-19 03:30N 54°34' E 012°25'1414.9
2016-Aug-19 02:33N 54°25' E 012°07'1615.6
2016-Aug-19 01:33N 54°27' E 011°40'1616.1
2016-Aug-19 00:33N 54°34' E 011°15'1615.7
2016-Aug-18 23:34N 54°42' E 010°52'1514.7
2016-Aug-18 22:34N 54°56' E 010°56'1514.9
2016-Aug-18 21:33N 55°11' E 011°04'1514.6
2016-Aug-18 20:33N 55°25' E 010°57'7815.0
2016-Aug-18 15:20N 56°39' E 011°45'1215.0
2016-Aug-18 14:34N 56°50' E 011°49'1816.3
2016-Aug-18 13:28N 57°07' E 011°37'1416.0
2016-Aug-18 12:33N 57°20' E 011°29'1515.5
2016-Aug-18 11:34N 57°33' E 011°13'1615.7
2016-Aug-18 10:33N 57°44' E 010°51'14514.3
2016-Aug-18 00:22N 56°14' E 007°22'1315.8
2016-Aug-17 23:33N 56°03' E 007°11'  
Track history (hours):
 
Tides and Currents Weather Stations Pressure Air Temp Water Temp Dewpoint Dewpoint Depression Visibility Wind Speed Wind Dir Waves Ship Positions

Linda

Last reported at 2016-Aug-27 23:33 UTC. Time now 2016-Aug-28 00:27 UTC.
Position N 57°13' E 008°16'.

Length 141 m; draft 7.7 m.

Type: Ship (hazmat cat A). MMSI: 230984000.

Date/timePositionNaut miles runAvg speedWind from/ knotsBaromVisibWave heightAir tempDewpointWater temp
2016-Aug-27 23:33N 57°13' E 008°16'2913.8
2016-Aug-27 21:27N 57°26' E 009°04'1213.6
2016-Aug-27 20:34N 57°32' E 009°25'1313.3
2016-Aug-27 19:33N 57°37' E 009°47'1412.9
2016-Aug-27 18:27N 57°42' E 010°12'1213.2
2016-Aug-27 17:33N 57°46' E 010°33'1111.1
2016-Aug-27 16:33N 57°44' E 010°53'1413.7
2016-Aug-27 15:33N 57°35' E 011°12'1413.8
2016-Aug-27 14:33N 57°24' E 011°28'1413.7
2016-Aug-27 13:33N 57°11' E 011°37'1313.2
2016-Aug-27 12:33N 56°59' E 011°46'1313.2
2016-Aug-27 11:33N 56°46' E 011°54'1313.4
2016-Aug-27 10:33N 56°34' E 012°02'2814.0
2016-Aug-27 08:33N 56°10' E 012°29'1313.0
2016-Aug-27 07:33N 55°59' E 012°42'1313.1
2016-Aug-27 06:33N 55°46' E 012°42'19 9.6
2016-Aug-27 04:34N 55°27' E 012°42'10 9.8
2016-Aug-27 03:33N 55°17' E 012°46'1211.7
2016-Aug-27 02:34N 55°16' E 013°06'1211.9
2016-Aug-27 01:34N 55°15' E 013°27'1212.4
2016-Aug-27 00:34N 55°15' E 013°49'1211.9
2016-Aug-26 23:34N 55°14' E 014°10'1211.5
2016-Aug-26 22:34N 55°21' E 014°26'1312.5
2016-Aug-26 21:34N 55°29' E 014°42'1212.2
2016-Aug-26 20:33N 55°36' E 015°01'1212.3
2016-Aug-26 19:34N 55°41' E 015°20'1313.4
2016-Aug-26 18:33N 55°48' E 015°40'235 6.2
2016-Aug-25 04:33N 58°02' E 021°34'1514.9
2016-Aug-25 03:33N 58°16' E 021°27'4915.0
2016-Aug-25 00:19N 59°04' E 021°34'1114.9
2016-Aug-24 23:34N 59°12' E 021°50'1615.2
2016-Aug-24 22:32N 59°22' E 022°14'1414.8
2016-Aug-24 21:33N 59°30' E 022°37'1515.0
2016-Aug-24 20:33N 59°35' E 023°05'1514.9
2016-Aug-24 19:33N 59°40' E 023°33'1514.9
2016-Aug-24 18:33N 59°45' E 024°01'65 1.7
2016-Aug-23 03:33N 59°59' E 026°07'1917.1
2016-Aug-23 02:26N 60°01' E 026°45'4515.7
2016-Aug-22 23:32N 60°08' E 028°15'1616.4
2016-Aug-22 22:34N 60°03' E 028°46'1717.3
2016-Aug-22 21:33N 60°02' E 029°21'1111.4
2016-Aug-22 20:34N 59°59' E 029°43'0 0.0
2016-Aug-22 04:32N 59°59' E 029°43'1212.2
2016-Aug-22 03:33N 60°02' E 029°19'1514.7
2016-Aug-22 02:33N 60°02' E 028°50'1414.0
2016-Aug-22 01:33N 60°05' E 028°22'1313.5
2016-Aug-22 00:33N 60°10' E 027°57'1312.7
2016-Aug-21 23:33N 60°07' E 027°32'1414.1
2016-Aug-21 22:34N 59°59' E 027°08'1414.5
2016-Aug-21 21:34N 59°60' E 026°39'1915.5
2016-Aug-21 20:19N 59°54' E 026°03'1215.7
2016-Aug-21 19:33N 59°51' E 025°39'2016.5
2016-Aug-21 18:20N 59°47' E 025°00'1316.7
2016-Aug-21 17:32N 59°43' E 024°35'1816.7
2016-Aug-21 16:27N 59°39' E 023°60'1617.3
2016-Aug-21 15:33N 59°34' E 023°31'2017.6
2016-Aug-21 14:25N 59°27' E 022°54'320 6.4
2016-Aug-19 12:32N 55°44' E 015°45'1514.9
2016-Aug-19 11:33N 55°36' E 015°23'1515.0
2016-Aug-19 10:33N 55°29' E 014°60'1514.6
2016-Aug-19 09:33N 55°22' E 014°38'1514.6
2016-Aug-19 08:34N 55°10' E 014°21'1414.4
2016-Aug-19 07:33N 55°00' E 014°04'1514.8
2016-Aug-19 06:33N 54°55' E 013°40'3215.8
2016-Aug-19 04:33N 54°43' E 012°48'1715.7
2016-Aug-19 03:30N 54°34' E 012°25'1414.9
2016-Aug-19 02:33N 54°25' E 012°07'1615.6
2016-Aug-19 01:33N 54°27' E 011°40'1616.1
2016-Aug-19 00:33N 54°34' E 011°15'1615.7
2016-Aug-18 23:34N 54°42' E 010°52'1514.7
2016-Aug-18 22:34N 54°56' E 010°56'1514.9
2016-Aug-18 21:33N 55°11' E 011°04'1514.6
2016-Aug-18 20:33N 55°25' E 010°57'7815.0
2016-Aug-18 15:20N 56°39' E 011°45'1215.0
2016-Aug-18 14:34N 56°50' E 011°49'1816.3
2016-Aug-18 13:28N 57°07' E 011°37'1416.0
2016-Aug-18 12:33N 57°20' E 011°29'1515.5
2016-Aug-18 11:34N 57°33' E 011°13'1615.7
2016-Aug-18 10:33N 57°44' E 010°51'14514.3
2016-Aug-18 00:22N 56°14' E 007°22'1315.8
2016-Aug-17 23:33N 56°03' E 007°11'  

Dump ship's entire track history